Time;durP1;ratioP1;P1;durP2;ratioP2;P2;SDS_P1;SDS_P2;PMS_P1;PMS_P2;Temp;Humidity;BMP_temperature;BMP_pressure;BME280_temperature;BME280_humidity;BME280_pressure;Samples;Min_cycle;Max_cycle;Signal;HPM_P1;HPM_P2
2021/06/08 00:00:57;;;;;;;18.98;12.73;;;;;;;15.24;99.56;102065.19;6222612;28;20053;-76
2021/06/08 00:03:57;;;;;;;21.88;14.80;;;;;;;15.20;99.59;102063.66;6225023;28;20060;-76
2021/06/08 00:06:58;;;;;;;32.00;14.77;;;;;;;15.08;100.00;102072.22;6224603;28;20314;-76
2021/06/08 00:09:59;;;;;;;22.27;13.57;;;;;;;15.04;100.00;102063.59;6224387;28;20096;-76
2021/06/08 00:13:01;;;;;;;23.33;15.23;;;;;;;14.98;100.00;102063.88;6224594;28;20042;-76
2021/06/08 00:16:03;;;;;;;21.35;14.50;;;;;;;14.99;100.00;102078.84;6223382;28;20045;-76
2021/06/08 00:19:04;;;;;;;23.55;14.98;;;;;;;14.99;100.00;102068.25;6224236;28;20046;-76
2021/06/08 00:22:05;;;;;;;21.88;15.38;;;;;;;15.06;100.00;102061.72;6224641;28;20056;-77
2021/06/08 00:25:07;;;;;;;25.00;16.38;;;;;;;15.00;100.00;102063.81;6224581;28;20056;-76
2021/06/08 00:28:09;;;;;;;26.00;16.95;;;;;;;14.89;100.00;102070.50;6224235;28;20505;-76
2021/06/08 00:31:10;;;;;;;27.73;16.85;;;;;;;14.91;100.00;102065.16;6224118;28;20053;-76
2021/06/08 00:34:11;;;;;;;26.00;15.77;;;;;;;14.95;100.00;102072.00;6223939;28;20558;-75
2021/06/08 00:37:12;;;;;;;25.50;16.70;;;;;;;14.88;100.00;102067.94;6223620;28;20046;-76
2021/06/08 00:40:13;;;;;;;27.38;17.02;;;;;;;14.83;100.00;102076.09;6223566;28;20054;-76
2021/06/08 00:43:15;;;;;;;27.88;17.08;;;;;;;14.87;100.00;102069.72;6223898;28;20097;-76
2021/06/08 00:46:16;;;;;;;31.67;16.92;;;;;;;14.90;100.00;102068.72;6223877;28;20057;-76
2021/06/08 00:49:17;;;;;;;29.67;17.42;;;;;;;14.81;100.00;102069.19;6223555;28;20363;-76
2021/06/08 00:52:18;;;;;;;25.98;15.73;;;;;;;14.86;100.00;102065.38;6223736;28;20430;-76
2021/06/08 00:55:20;;;;;;;27.45;17.13;;;;;;;14.83;100.00;102062.88;6223764;28;20472;-76
2021/06/08 00:58:22;;;;;;;29.48;17.65;;;;;;;14.78;100.00;102056.97;6223324;28;20052;-76
2021/06/08 01:01:23;;;;;;;24.90;16.05;;;;;;;14.80;100.00;102057.72;6223469;28;20050;-76
2021/06/08 01:04:24;;;;;;;30.15;18.48;;;;;;;14.80;100.00;102052.44;6223627;28;20425;-76
2021/06/08 01:07:24;;;;;;;34.10;18.35;;;;;;;14.78;100.00;102058.75;6223911;28;20046;-76
2021/06/08 01:10:25;;;;;;;32.42;17.33;;;;;;;14.90;100.00;102055.50;6223135;28;20136;-76
2021/06/08 01:13:29;;;;;;;27.80;18.30;;;;;;;14.71;100.00;102055.53;6223958;28;20076;-76
2021/06/08 01:16:30;;;;;;;28.63;18.13;;;;;;;14.74;100.00;102057.19;6223557;28;20136;-76
2021/06/08 01:19:31;;;;;;;30.30;18.67;;;;;;;14.59;100.00;102059.66;6223206;28;20424;-76
2021/06/08 01:22:34;;;;;;;29.48;19.98;;;;;;;14.57;100.00;102060.66;6223595;28;20046;-76
2021/06/08 01:25:35;;;;;;;31.98;19.40;;;;;;;14.66;100.00;102063.69;6222739;28;20409;-76
2021/06/08 01:28:37;;;;;;;32.58;21.27;;;;;;;14.57;100.00;102063.31;6222879;28;20108;-76
2021/06/08 01:31:39;;;;;;;31.95;20.42;;;;;;;14.71;100.00;102064.31;6223378;28;20049;-76
2021/06/08 01:34:41;;;;;;;30.38;20.48;;;;;;;14.57;100.00;102063.31;6223221;28;20061;-76
2021/06/08 01:37:45;;;;;;;37.70;21.23;;;;;;;14.57;100.00;102071.25;6222356;28;20429;-76
2021/06/08 01:40:48;;;;;;;32.13;20.75;;;;;;;14.53;100.00;102069.66;6223116;28;20045;-76
2021/06/08 01:43:50;;;;;;;34.58;21.15;;;;;;;14.57;100.00;102063.31;6222580;28;20460;-76
2021/06/08 01:46:51;;;;;;;34.13;21.80;;;;;;;14.47;100.00;102065.50;6222715;28;20045;-76
2021/06/08 01:49:52;;;;;;;35.08;21.75;;;;;;;14.62;100.00;102058.63;6222286;28;20046;-76
2021/06/08 01:53:07;;;;;;;38.08;21.35;;;;;;;14.47;100.00;102058.44;6223038;28;20052;-76
2021/06/08 01:56:12;;;;;;;34.97;22.90;;;;;;;14.34;100.00;102053.81;6222566;28;20108;-76
2021/06/08 01:59:25;;;;;;;39.72;24.58;;;;;;;14.47;100.00;102053.13;6222383;28;20050;-76
2021/06/08 02:02:32;;;;;;;38.28;22.02;;;;;;;14.39;100.00;102059.72;6222599;28;20053;-76
2021/06/08 02:05:42;;;;;;;35.03;24.27;;;;;;;14.29;100.00;102056.66;6222866;28;20057;-76
2021/06/08 02:08:49;;;;;;;;;;;;;;;14.21;100.00;102059.66;6222862;28;20049;-76
2021/06/08 02:11:57;;;;;;;39.03;23.48;;;;;;;14.20;100.00;102060.59;6222712;28;20412;-76
2021/06/08 02:15:03;;;;;;;35.95;22.17;;;;;;;14.28;100.00;102059.41;6222417;28;20551;-76
2021/06/08 02:18:04;;;;;;;37.13;22.95;;;;;;;14.17;100.00;102063.41;6222154;28;20488;-75
2021/06/08 02:21:08;;;;;;;42.95;25.45;;;;;;;14.16;100.00;102064.31;6222080;28;20413;-76
2021/06/08 02:24:16;;;;;;;36.47;23.70;;;;;;;14.16;100.00;102063.47;6222593;28;20103;-76
2021/06/08 02:27:21;;;;;;;37.20;22.90;;;;;;;14.19;100.00;102065.97;6222345;28;20045;-76
2021/06/08 02:30:23;;;;;;;30.25;21.17;;;;;;;14.19;100.00;102068.63;6221794;28;20046;-76
2021/06/08 02:33:26;;;;;;;40.03;22.65;;;;;;;14.17;100.00;102073.09;6222135;28;20046;-76
2021/06/08 02:36:27;;;;;;;35.47;22.98;;;;;;;14.09;100.00;102059.41;6221688;28;20073;-76
2021/06/08 02:39:31;;;;;;;36.65;21.38;;;;;;;14.21;100.00;102072.88;6225195;28;20061;-76
2021/06/08 02:42:32;;;;;;;32.88;22.95;;;;;;;14.03;100.00;102071.13;6226791;28;20050;-76
2021/06/08 02:45:33;;;;;;;37.80;24.65;;;;;;;13.97;100.00;102063.47;6226731;28;20056;-76
2021/06/08 02:48:36;;;;;;;36.85;22.27;;;;;;;14.06;100.00;102068.34;6226583;28;20045;-75
2021/06/08 02:51:37;;;;;;;34.65;23.25;;;;;;;13.93;100.00;102073.31;6226487;28;20045;-75
2021/06/08 02:54:40;;;;;;;33.03;21.77;;;;;;;13.96;100.00;102070.56;6226458;28;20081;-76
2021/06/08 02:57:42;;;;;;;36.60;22.75;;;;;;;14.03;100.00;102078.19;6226221;28;20050;-76
2021/06/08 03:00:43;;;;;;;35.15;21.58;;;;;;;13.98;100.00;102074.91;6226106;28;20046;-76
2021/06/08 03:03:47;;;;;;;34.95;21.02;;;;;;;13.87;100.00;102078.91;6226378;28;20100;-76
2021/06/08 03:06:52;;;;;;;37.05;23.60;;;;;;;13.81;100.00;102078.34;6226238;28;20046;-76
2021/06/08 03:10:01;;;;;;;33.38;22.50;;;;;;;13.81;100.00;102075.69;6225805;28;20136;-76
2021/06/08 03:13:07;;;;;;;38.28;23.10;;;;;;;13.83;100.00;102077.31;6226018;28;20100;-76
2021/06/08 03:16:10;;;;;;;38.75;22.92;;;;;;;13.91;100.00;102080.47;6226135;28;20042;-75
2021/06/08 03:19:16;;;;;;;33.00;21.85;;;;;;;13.82;100.00;102078.25;6225889;28;20054;-76
2021/06/08 03:22:19;;;;;;;30.48;22.17;;;;;;;13.78;100.00;102070.53;6226367;28;20053;-76
2021/06/08 03:25:24;;;;;;;36.22;22.70;;;;;;;14.01;100.00;102074.78;6226076;28;20262;-76
2021/06/08 03:28:26;;;;;;;33.92;20.98;;;;;;;13.84;100.00;102076.41;6225863;28;20069;-76
2021/06/08 03:31:28;;;;;;;32.85;22.60;;;;;;;13.84;100.00;102075.53;6226313;28;20116;-75
2021/06/08 03:34:31;;;;;;;34.25;21.95;;;;;;;13.87;100.00;102080.69;6226157;28;20054;-76
2021/06/08 03:37:33;;;;;;;32.38;21.63;;;;;;;13.83;100.00;102073.84;6225261;28;20058;-76
2021/06/08 03:40:35;;;;;;;43.08;22.25;;;;;;;13.74;100.00;102071.59;6225362;28;20512;-75
2021/06/08 03:43:37;;;;;;;36.67;22.42;;;;;;;13.73;100.00;102076.03;6225367;28;20060;-76
2021/06/08 03:46:38;;;;;;;32.92;23.38;;;;;;;13.74;100.00;102076.91;6225481;28;20104;-75
2021/06/08 03:49:39;;;;;;;33.97;23.33;;;;;;;13.76;100.00;102075.88;6224677;28;20117;-76
2021/06/08 03:52:42;;;;;;;38.22;24.10;;;;;;;13.85;100.00;102080.78;6225112;28;20421;-76
2021/06/08 03:55:47;;;;;;;35.08;22.20;;;;;;;13.84;100.00;102078.19;6224965;28;20053;-76
2021/06/08 03:58:50;;;;;;;39.78;23.92;;;;;;;13.78;100.00;102081.97;6225052;28;20104;-76
2021/06/08 04:01:53;;;;;;;36.63;23.05;;;;;;;13.69;100.00;102080.59;6224881;28;20050;-76
2021/06/08 04:04:53;;;;;;;41.25;24.88;;;;;;;13.71;100.00;102081.38;6225045;28;20619;-76
2021/06/08 04:07:54;;;;;;;35.10;23.77;;;;;;;13.64;100.00;102074.66;6224532;28;20136;-76
2021/06/08 04:10:57;;;;;;;34.60;23.30;;;;;;;13.77;100.00;102074.97;6224636;28;20050;-76
2021/06/08 04:13:58;;;;;;;35.80;23.38;;;;;;;13.75;100.00;102075.97;6222862;28;20050;-76
2021/06/08 04:16:59;;;;;;;31.10;23.10;;;;;;;13.70;100.00;102073.53;6198482;28;20054;-76
2021/06/08 04:20:00;;;;;;;37.60;25.80;;;;;;;13.67;100.00;102071.91;6198303;28;20050;-76
2021/06/08 04:23:01;;;;;;;41.72;25.90;;;;;;;13.65;100.00;102068.44;6198400;28;20100;-75
2021/06/08 04:26:04;;;;;;;38.35;25.52;;;;;;;13.75;100.00;102065.38;6198619;28;20421;-76
2021/06/08 04:29:05;;;;;;;39.92;25.77;;;;;;;13.80;100.00;102071.31;6198381;28;20046;-76
2021/06/08 04:32:07;;;;;;;38.70;24.98;;;;;;;13.76;100.00;102065.31;6199964;28;20054;-76
2021/06/08 04:35:09;;;;;;;37.83;25.10;;;;;;;13.85;100.00;102064.94;6199677;28;20050;-76
2021/06/08 04:38:10;;;;;;;36.05;23.80;;;;;;;13.70;100.00;102071.75;6197746;28;20050;-75
2021/06/08 04:41:12;;;;;;;37.10;25.13;;;;;;;13.69;100.00;102072.66;6197958;28;20081;-75
2021/06/08 04:44:17;;;;;;;40.13;25.60;;;;;;;13.86;100.00;102082.47;6199785;28;20050;-75
2021/06/08 04:47:20;;;;;;;41.13;25.98;;;;;;;13.74;100.00;102068.97;6199682;28;20077;-76
2021/06/08 04:50:21;;;;;;;42.90;26.48;;;;;;;13.73;100.00;102076.03;6200721;28;20042;-76
2021/06/08 04:53:22;;;;;;;35.72;24.35;;;;;;;13.94;100.00;102071.53;6213543;28;20056;-75
2021/06/08 04:56:25;;;;;;;34.13;23.42;;;;;;;13.90;100.00;102080.56;6217668;28;20045;-75
2021/06/08 04:59:31;;;;;;;39.40;26.10;;;;;;;13.91;100.00;102084.91;6212345;28;20054;-76
2021/06/08 05:02:36;;;;;;;40.88;25.05;;;;;;;13.91;100.00;102084.91;6222967;28;20070;-76
2021/06/08 05:05:40;;;;;;;37.05;25.60;;;;;;;13.94;100.00;102082.09;6218270;28;20065;-76
2021/06/08 05:08:47;;;;;;;38.90;25.50;;;;;;;13.88;100.00;102079.75;6212005;28;20046;-76
2021/06/08 05:11:52;;;;;;;39.80;26.08;;;;;;;13.87;100.00;102078.91;6267712;22;20507;-74
2021/06/08 05:14:56;;;;;;;41.72;26.05;;;;;;;13.86;100.00;102086.91;6246829;28;20060;-75
2021/06/08 05:17:58;;;;;;;36.30;25.67;;;;;;;13.93;100.00;102086.53;6248640;28;20554;-75
2021/06/08 05:21:01;;;;;;;40.17;25.95;;;;;;;13.89;100.00;102084.97;6246297;28;20124;-75
2021/06/08 05:24:04;;;;;;;44.80;26.05;;;;;;;13.95;100.00;102090.00;6246071;28;20427;-76
2021/06/08 05:27:10;;;;;;;48.00;26.58;;;;;;;13.94;100.00;102088.28;6246291;28;20041;-75
2021/06/08 05:30:12;;;;;;;38.53;24.73;;;;;;;14.14;100.00;102095.28;6243729;28;20068;-76
2021/06/08 05:33:19;;;;;;;36.15;24.50;;;;;;;14.17;100.00;102096.91;6246613;28;20082;-75
2021/06/08 05:36:20;;;;;;;41.95;26.27;;;;;;;14.13;100.00;102087.44;6246522;28;20045;-76
2021/06/08 05:39:21;;;;;;;33.38;24.35;;;;;;;14.13;100.00;102096.22;6246943;28;20077;-75
2021/06/08 05:42:23;;;;;;;43.30;25.63;;;;;;;14.13;100.00;102090.06;6247462;28;20049;-75
2021/06/08 05:45:29;;;;;;;37.15;24.40;;;;;;;14.20;100.00;102097.63;6246932;28;20067;-75
2021/06/08 05:48:31;;;;;;;38.67;26.38;;;;;;;14.28;100.00;102104.34;6246737;28;20639;-76
2021/06/08 05:51:34;;;;;;;36.88;25.48;;;;;;;14.43;100.00;102104.47;6246791;28;20046;-75
2021/06/08 05:54:35;;;;;;;36.53;24.45;;;;;;;14.33;100.00;102095.25;6247008;28;20103;-76
2021/06/08 05:57:38;;;;;;;40.28;25.23;;;;;;;14.37;100.00;102107.41;6246978;28;20045;-75
2021/06/08 06:00:39;;;;;;;37.38;26.55;;;;;;;14.41;100.00;102101.06;6246521;28;20421;-76
2021/06/08 06:03:40;;;;;;;45.63;27.85;;;;;;;14.39;100.00;102108.19;6246919;28;20056;-75
2021/06/08 06:06:43;;;;;;;38.58;27.05;;;;;;;14.40;100.00;102109.06;6246006;28;20576;-75
2021/06/08 06:09:44;;;;;;;37.72;25.15;;;;;;;14.46;100.00;102111.41;6246589;28;20095;-76
2021/06/08 06:12:47;;;;;;;37.00;24.33;;;;;;;14.60;100.00;102106.34;6246766;28;20053;-75
2021/06/08 06:15:49;;;;;;;34.38;24.80;;;;;;;14.52;100.00;102105.84;6247127;28;20050;-76
2021/06/08 06:18:50;;;;;;;34.83;25.48;;;;;;;14.55;100.00;102108.34;6246550;28;20056;-75
2021/06/08 06:21:53;;;;;;;35.53;24.95;;;;;;;14.65;100.00;102106.97;6246948;28;20052;-75
2021/06/08 06:24:54;;;;;;;42.20;26.40;;;;;;;14.84;100.00;102108.72;6246627;28;20045;-74
2021/06/08 06:27:56;;;;;;;36.88;24.80;;;;;;;14.78;100.00;102109.88;6246675;28;20048;-75
2021/06/08 06:30:58;;;;;;;34.80;23.58;;;;;;;14.86;100.00;102107.72;6246427;28;20065;-75
2021/06/08 06:33:59;;;;;;;44.70;25.17;;;;;;;14.91;100.00;102112.78;6246733;28;20103;-77
2021/06/08 06:37:02;;;;;;;32.83;24.02;;;;;;;14.97;100.00;102107.19;6246252;28;20050;-75
2021/06/08 06:40:07;;;;;;;31.00;22.60;;;;;;;15.12;100.00;102106.41;6246042;28;20046;-75
2021/06/08 06:43:14;;;;;;;43.40;26.75;;;;;;;15.00;100.00;102104.38;6246612;28;20527;-75
2021/06/08 06:46:17;;;;;;;32.05;23.80;;;;;;;15.06;100.00;102098.78;6246967;28;20054;-75
2021/06/08 06:49:18;;;;;;;36.88;25.60;;;;;;;15.03;100.00;102096.28;6246324;28;20057;-77
2021/06/08 06:52:19;;;;;;;36.00;23.67;;;;;;;15.24;100.00;102096.97;6246944;28;20045;-75
2021/06/08 06:55:20;;;;;;;33.10;23.30;;;;;;;15.16;100.00;102097.38;6247057;28;20046;-77
2021/06/08 06:58:23;;;;;;;32.33;24.15;;;;;;;15.24;100.00;102110.22;6247080;28;20080;-77
2021/06/08 07:01:25;;;;;;;39.90;25.75;;;;;;;15.32;100.00;102105.41;6246619;28;20485;-75
2021/06/08 07:04:27;;;;;;;32.38;23.10;;;;;;;15.31;100.00;102103.69;6247668;28;20057;-77
2021/06/08 07:07:29;;;;;;;36.25;23.20;;;;;;;15.50;100.00;102102.72;6247540;28;20049;-77
2021/06/08 07:10:31;;;;;;;34.05;26.00;;;;;;;15.67;100.00;102100.09;6246845;28;20045;-76
2021/06/08 07:13:33;;;;;;;41.05;26.92;;;;;;;15.48;100.00;102103.66;6246993;28;20393;-77
2021/06/08 07:16:35;;;;;;;34.40;23.30;;;;;;;15.52;100.00;102100.84;6246251;28;20049;-75
2021/06/08 07:19:37;;;;;;;32.42;24.05;;;;;;;15.65;100.00;102105.44;6245939;28;20052;-77
2021/06/08 07:22:39;;;;;;;34.53;24.67;;;;;;;15.79;100.00;102110.03;6247452;28;20140;-77
2021/06/08 07:25:40;;;;;;;33.13;24.48;;;;;;;15.71;100.00;102106.91;6249522;28;20060;-77
2021/06/08 07:28:43;;;;;;;31.65;24.48;;;;;;;15.69;100.00;102106.16;6251365;28;20397;-77
2021/06/08 07:31:49;;;;;;;38.10;24.58;;;;;;;15.86;100.00;102099.97;6251369;28;20049;-77
2021/06/08 07:34:59;;;;;;;33.63;23.27;;;;;;;15.68;100.00;102104.44;6250511;28;20060;-77
2021/06/08 07:38:07;;;;;;;33.28;25.00;;;;;;;15.76;100.00;102107.56;6249684;28;20053;-77
2021/06/08 07:41:11;;;;;;;40.42;27.45;;;;;;;15.77;100.00;102111.91;6249140;28;20053;-77
2021/06/08 07:44:16;;;;;;;33.03;24.95;;;;;;;16.00;100.00;102120.44;6249894;28;20619;-77
2021/06/08 07:47:21;;;;;;;35.65;23.48;;;;;;;15.90;100.00;102115.63;6249807;28;20462;-75
2021/06/08 07:50:26;;;;;;;31.10;22.90;;;;;;;15.86;100.00;102111.41;6249638;28;20060;-75
2021/06/08 07:53:31;;;;;;;34.85;24.48;;;;;;;16.01;100.00;102114.19;6249854;28;20045;-75
2021/06/08 07:56:33;;;;;;;36.92;23.95;;;;;;;16.11;100.00;102118.88;6249661;28;20504;-75
2021/06/08 07:59:35;;;;;;;31.75;22.40;;;;;;;16.04;100.00;102116.66;6246558;28;20448;-74
2021/06/08 08:02:38;;;;;;;31.80;24.77;;;;;;;16.15;100.00;102124.88;6247756;28;20049;-74
2021/06/08 08:05:39;;;;;;;38.45;25.08;;;;;;;16.28;100.00;102120.63;6249656;28;20057;-74
2021/06/08 08:08:40;;;;;;;30.48;24.73;;;;;;;16.20;100.00;102122.84;6245650;28;20056;-74
2021/06/08 08:11:43;;;;;;;30.60;21.40;;;;;;;16.25;100.00;102120.78;6248880;28;20049;-74
2021/06/08 08:14:48;;;;;;;31.77;23.90;;;;;;;16.22;100.00;102124.47;6249497;28;20096;-74
2021/06/08 08:17:50;;;;;;;31.90;23.48;;;;;;;16.48;100.00;102125.66;6249756;28;20065;-74
2021/06/08 08:20:53;;;;;;;28.38;22.70;;;;;;;16.36;100.00;102130.81;6247962;28;20050;-73
2021/06/08 08:23:54;;;;;;;34.00;23.77;;;;;;;16.28;100.00;102135.69;6249132;28;20050;-73
2021/06/08 08:26:55;;;;;;;27.48;22.25;;;;;;;16.25;100.00;102134.03;6249345;28;20053;-73
2021/06/08 08:29:57;;;;;;;30.92;22.60;;;;;;;16.32;100.00;102131.91;6247402;28;20045;-73
2021/06/08 08:32:58;;;;;;;32.47;22.17;;;;;;;16.43;100.00;102133.03;6246951;28;20049;-73
2021/06/08 08:36:01;;;;;;;29.38;21.52;;;;;;;16.61;100.00;102131.13;6245850;28;20076;-73
2021/06/08 08:39:01;;;;;;;27.65;21.58;;;;;;;16.62;100.00;102129.34;6248247;28;20060;-73
2021/06/08 08:42:05;;;;;;;31.55;22.63;;;;;;;16.65;100.00;102130.03;6248160;28;20050;-73
2021/06/08 08:45:08;;;;;;;31.65;21.92;;;;;;;16.68;100.00;102123.69;6249320;28;20052;-74
2021/06/08 08:48:09;;;;;;;25.65;21.08;;;;;;;16.68;100.00;102123.69;6248891;28;20061;-74
2021/06/08 08:51:12;;;;;;;26.92;19.65;;;;;;;16.90;100.00;102118.03;6248838;28;20049;-74
2021/06/08 08:54:13;;;;;;;30.42;21.92;;;;;;;17.09;100.00;102128.44;6248403;28;20488;-74
2021/06/08 08:57:17;;;;;;;29.25;20.50;;;;;;;17.14;100.00;102115.75;6249010;28;20111;-73
2021/06/08 09:00:22;;;;;;;28.10;20.23;;;;;;;17.02;100.00;102122.63;6247730;28;20259;-74
2021/06/08 09:03:25;;;;;;;23.70;19.48;;;;;;;17.14;100.00;102115.75;6249086;28;20484;-74
2021/06/08 09:06:26;;;;;;;26.38;18.88;;;;;;;17.10;100.00;102120.38;6248680;28;20056;-74
2021/06/08 09:09:28;;;;;;;27.25;20.02;;;;;;;17.14;100.00;102113.09;6248089;28;20053;-74
2021/06/08 09:12:29;;;;;;;30.85;21.83;;;;;;;17.26;100.00;102115.03;6248089;28;20049;-74
2021/06/08 09:15:33;;;;;;;24.75;18.85;;;;;;;17.27;100.00;102114.06;6248067;28;20054;-74
2021/06/08 09:18:34;;;;;;;26.73;20.00;;;;;;;17.27;100.00;102107.91;6246639;28;20480;-74
2021/06/08 09:21:38;;;;;;;25.05;19.60;;;;;;;17.44;100.00;102113.03;6247977;28;20049;-73
2021/06/08 09:24:42;;;;;;;27.45;20.40;;;;;;;17.47;100.00;102113.72;6248194;28;20489;-74
2021/06/08 09:27:43;;;;;;;27.48;19.50;;;;;;;17.75;99.50;102110.25;6247681;28;20148;-74
2021/06/08 09:30:46;;;;;;;23.95;18.95;;;;;;;17.52;100.00;102105.47;6246053;28;20053;-74
2021/06/08 09:33:48;;;;;;;24.70;19.60;;;;;;;17.67;99.58;102099.22;6247319;28;20072;-74
2021/06/08 09:36:49;;;;;;;24.85;17.80;;;;;;;17.74;100.00;102103.22;6247907;28;20072;-74
2021/06/08 09:39:50;;;;;;;23.52;18.42;;;;;;;17.84;97.02;102097.34;6246963;28;20053;-74
2021/06/08 09:43:03;;;;;;;22.77;17.85;;;;;;;17.94;97.17;102101.13;6247441;28;20107;-73
2021/06/08 09:46:06;;;;;;;27.33;17.70;;;;;;;17.89;98.18;102103.22;6245868;28;20140;-73
2021/06/08 09:49:07;;;;;;;23.52;17.92;;;;;;;18.15;96.45;102101.59;6244892;28;20061;-73
2021/06/08 09:52:10;;;;;;;24.88;17.95;;;;;;;17.96;98.86;102097.44;6245522;28;20076;-74
2021/06/08 09:55:10;;;;;;;25.33;19.40;;;;;;;18.07;98.80;102095.91;6247208;28;20386;-74
2021/06/08 09:58:12;;;;;;;21.70;15.75;;;;;;;18.31;98.74;102090.84;6246998;28;20046;-74
2021/06/08 10:01:17;;;;;;;22.52;17.83;;;;;;;18.32;95.78;102095.19;6246677;28;20507;-73
2021/06/08 10:04:20;;;;;;;23.10;17.70;;;;;;;18.23;97.54;102094.81;6245007;28;20049;-73
2021/06/08 10:07:26;;;;;;;20.33;16.75;;;;;;;18.25;97.44;102095.56;6244898;28;20485;-74
2021/06/08 10:10:36;;;;;;;22.55;16.27;;;;;;;18.40;95.48;102099.06;6246767;28;20053;-74
2021/06/08 10:13:37;;;;;;;23.27;16.83;;;;;;;18.45;96.12;102088.97;6247242;28;20053;-74
2021/06/08 10:16:40;;;;;;;21.38;17.52;;;;;;;18.46;97.11;102090.69;6258695;28;20057;-74
2021/06/08 10:19:41;;;;;;;24.20;17.35;;;;;;;18.49;97.90;102079.00;6271661;28;20049;-74
2021/06/08 10:22:42;;;;;;;23.20;16.60;;;;;;;18.50;97.86;102086.88;6255180;28;20136;-74
2021/06/08 10:25:44;;;;;;;24.40;16.77;;;;;;;18.74;98.12;102081.75;6247384;28;20109;-74
2021/06/08 10:28:45;;;;;;;24.15;16.10;;;;;;;18.82;95.87;102080.41;6246775;28;20585;-74
2021/06/08 10:31:48;;;;;;;30.65;20.77;;;;;;;18.89;94.45;102079.88;6246789;28;20068;-73
2021/06/08 10:34:49;;;;;;;24.90;16.30;;;;;;;18.86;93.76;102077.44;6247139;28;20578;-75
2021/06/08 10:37:50;;;;;;;22.52;17.10;;;;;;;19.17;92.90;102068.22;6246836;28;20072;-77
2021/06/08 10:40:53;;;;;;;23.15;16.33;;;;;;;19.19;93.93;102057.44;6246648;28;20171;-76
2021/06/08 10:43:54;;;;;;;21.60;16.23;;;;;;;19.20;95.96;102053.81;6246540;28;20431;-76
2021/06/08 10:47:01;;;;;;;21.30;16.52;;;;;;;19.40;94.16;102049.78;6246977;28;20416;-76
2021/06/08 10:50:03;;;;;;;20.75;16.63;;;;;;;19.50;91.89;102048.19;6246725;28;20126;-76
2021/06/08 10:53:06;;;;;;;19.58;14.65;;;;;;;19.45;93.52;102048.50;6247207;28;20056;-76
2021/06/08 10:56:22;;;;;;;22.98;16.13;;;;;;;19.63;91.27;102049.06;6246752;28;20108;-76
2021/06/08 10:59:34;;;;;;;23.83;15.93;;;;;;;19.80;93.36;102042.50;6248651;28;20107;-76
2021/06/08 11:02:47;;;;;;;23.17;14.98;;;;;;;20.10;90.82;102046.59;6247855;28;20140;-77
2021/06/08 11:05:55;;;;;;;25.30;14.73;;;;;;;20.17;89.69;102046.03;6228193;28;20497;-77
2021/06/08 11:09:00;;;;;;;22.13;15.07;;;;;;;20.23;90.27;102048.25;6235314;28;20128;-76
2021/06/08 11:12:04;;;;;;;20.33;14.85;;;;;;;20.28;89.15;102040.75;6250767;28;20053;-76
2021/06/08 11:15:20;;;;;;;20.20;15.00;;;;;;;20.35;87.59;102043.84;6250836;28;20107;-78
2021/06/08 11:18:42;;;;;;;22.10;14.82;;;;;;;20.35;88.29;102038.50;6226634;28;20046;-77
2021/06/08 11:21:56;;;;;;;17.40;14.25;;;;;;;20.27;88.24;102043.53;6227113;28;20064;-76
2021/06/08 11:24:57;;;;;;;17.23;13.68;;;;;;;20.28;93.23;102047.91;6229041;28;20383;-77
2021/06/08 11:27:59;;;;;;;22.88;14.95;;;;;;;20.43;87.74;102045.91;6227079;28;20045;-78
2021/06/08 11:31:01;;;;;;;19.27;14.60;;;;;;;20.44;86.99;102045.81;6227164;28;20061;-78
2021/06/08 11:34:05;;;;;;;20.45;14.93;;;;;;;20.13;88.20;102041.88;6226258;28;20061;-78
2021/06/08 11:37:51;;;;;;;18.15;13.63;;;;;;;20.00;92.90;102041.94;6226466;28;20049;-78
2021/06/08 11:40:57;;;;;;;28.88;15.02;;;;;;;20.56;91.70;102032.53;6236610;28;20412;-78
2021/06/08 11:44:01;;;;;;;19.73;14.60;;;;;;;21.16;85.03;102034.16;6251477;28;20053;-78
2021/06/08 11:47:04;;;;;;;19.05;13.90;;;;;;;20.96;83.38;102031.22;6250391;28;20049;-78
2021/06/08 11:50:07;;;;;;;18.95;13.98;;;;;;;20.70;84.73;102024.34;6249910;28;20053;-78
2021/06/08 11:53:09;;;;;;;18.98;12.85;;;;;;;20.75;87.12;102030.19;6249893;28;20421;-77
2021/06/08 11:56:11;;;;;;;19.35;14.27;;;;;;;20.81;87.75;102024.38;6250181;28;20045;-77
2021/06/08 11:59:14;;;;;;;20.55;13.18;;;;;;;21.32;83.25;102026.69;6249193;28;20057;-78
2021/06/08 12:02:29;;;;;;;15.85;12.75;;;;;;;20.99;82.36;102022.13;6249849;28;20050;-77
2021/06/08 12:05:42;;;;;;;19.35;13.10;;;;;;;20.68;85.50;102019.13;6249767;28;20046;-77
2021/06/08 12:08:43;;;;;;;19.92;13.20;;;;;;;20.70;85.18;102017.16;6249554;28;20049;-77
2021/06/08 12:11:44;;;;;;;18.20;12.60;;;;;;;20.91;87.85;102012.00;6249097;28;20061;-77
2021/06/08 12:14:47;;;;;;;16.20;11.70;;;;;;;21.56;86.43;102023.91;6249398;28;20050;-77
2021/06/08 12:18:05;;;;;;;22.20;12.68;;;;;;;21.65;80.12;102016.97;6270557;28;20075;-77
2021/06/08 12:21:11;;;;;;;24.83;13.95;;;;;;;21.45;80.86;102007.88;6274624;28;20111;-78
2021/06/08 12:24:17;;;;;;;17.20;12.48;;;;;;;21.32;82.04;102012.47;6274204;28;20041;-76
2021/06/08 12:27:18;;;;;;;15.43;12.15;;;;;;;20.88;84.17;102014.91;6268046;28;20110;-77
2021/06/08 12:30:22;;;;;;;17.55;12.35;;;;;;;20.92;85.17;102000.34;6248375;28;20049;-76
2021/06/08 12:33:25;;;;;;;15.05;11.70;;;;;;;20.70;85.47;101997.63;6248756;28;20060;-76
2021/06/08 12:36:27;;;;;;;13.80;11.13;;;;;;;20.76;86.00;102000.69;6248714;28;20080;-76
2021/06/08 12:39:30;;;;;;;16.67;11.07;;;;;;;21.12;83.66;102004.16;6248518;28;20056;-77
2021/06/08 12:42:32;;;;;;;13.25;10.32;;;;;;;21.37;83.08;102000.44;6248648;28;20073;-78
2021/06/08 12:45:33;;;;;;;14.82;10.70;;;;;;;21.24;82.38;102000.50;6248543;28;20042;-77
2021/06/08 12:48:34;;;;;;;17.08;11.35;;;;;;;21.08;83.96;101993.84;6248115;28;20056;-76
2021/06/08 12:51:38;;;;;;;16.98;11.18;;;;;;;21.18;82.44;101986.78;6246667;28;20424;-77
2021/06/08 12:54:40;;;;;;;17.13;12.35;;;;;;;20.99;84.23;101990.91;6248062;28;20050;-78
2021/06/08 12:57:41;;;;;;;16.52;12.02;;;;;;;20.96;82.85;101984.94;6248419;28;20068;-78
2021/06/08 13:00:43;;;;;;;17.52;11.15;;;;;;;21.10;82.74;101986.53;6247895;28;20050;-76
2021/06/08 13:03:46;;;;;;;17.55;11.85;;;;;;;21.05;83.16;101984.22;6248624;28;20045;-76
2021/06/08 13:06:54;;;;;;;17.35;12.45;;;;;;;20.82;83.87;101977.13;6248169;28;20050;-78
2021/06/08 13:09:58;;;;;;;11.75;9.57;;;;;;;20.71;84.99;101984.16;6248169;28;20052;-77
2021/06/08 13:13:05;;;;;;;18.40;11.25;;;;;;;20.65;86.87;101981.94;6247925;28;20087;-77
2021/06/08 13:16:06;;;;;;;25.55;16.15;;;;;;;20.67;89.72;101979.19;6247732;28;20046;-76
2021/06/08 13:19:19;;;;;;;22.35;9.77;;;;;;;20.84;84.29;101975.19;6247629;28;20508;-76
2021/06/08 13:22:22;;;;;;;11.30;8.20;;;;;;;20.83;84.22;101971.66;6246997;28;20504;-76
2021/06/08 13:25:25;;;;;;;16.10;9.10;;;;;;;20.84;87.19;101970.69;6247492;28;20049;-76
2021/06/08 13:28:29;;;;;;;12.75;8.77;;;;;;;21.05;83.04;101980.69;6247918;28;20064;-77
2021/06/08 13:31:39;;;;;;;16.67;9.48;;;;;;;21.00;81.90;101981.06;6247637;28;20064;-76
2021/06/08 13:34:40;;;;;;;11.90;8.23;;;;;;;21.25;82.03;101980.81;6247723;28;20053;-76
2021/06/08 13:37:44;;;;;;;12.23;8.60;;;;;;;21.38;79.24;101985.25;6247354;28;20048;-76
2021/06/08 13:40:46;;;;;;;11.65;7.82;;;;;;;21.19;81.07;101980.47;6246967;28;20058;-76
2021/06/08 13:43:47;;;;;;;9.68;7.22;;;;;;;21.26;77.22;101971.84;6246881;28;20052;-75
2021/06/08 13:46:55;;;;;;;13.35;7.75;;;;;;;21.50;76.59;101969.06;6246697;28;20049;-76